sensor_id;sensor_type;location;lat;lon;timestamp;P1;durP1;ratioP1;P2;durP2;ratioP2
37097;SDS011;63608;49.572;12.348;2024-01-30T00:01:49;3.33;;;3.13;;
37097;SDS011;63608;49.572;12.348;2024-01-30T00:03:51;3.33;;;3.13;;
37097;SDS011;63608;49.572;12.348;2024-01-30T00:05:53;2.73;;;2.53;;
37097;SDS011;63608;49.572;12.348;2024-01-30T00:07:55;2.73;;;2.53;;
37097;SDS011;63608;49.572;12.348;2024-01-30T00:09:57;2.60;;;2.43;;
37097;SDS011;63608;49.572;12.348;2024-01-30T00:12:00;2.53;;;2.43;;
37097;SDS011;63608;49.572;12.348;2024-01-30T00:14:02;2.43;;;2.27;;
37097;SDS011;63608;49.572;12.348;2024-01-30T00:16:05;3.17;;;3.07;;
37097;SDS011;63608;49.572;12.348;2024-01-30T00:18:08;2.87;;;2.77;;
37097;SDS011;63608;49.572;12.348;2024-01-30T00:20:10;2.50;;;2.40;;
37097;SDS011;63608;49.572;12.348;2024-01-30T00:22:13;2.47;;;2.37;;
37097;SDS011;63608;49.572;12.348;2024-01-30T00:24:15;2.10;;;2.00;;
37097;SDS011;63608;49.572;12.348;2024-01-30T00:26:16;1.90;;;1.83;;
37097;SDS011;63608;49.572;12.348;2024-01-30T00:28:18;2.10;;;2.00;;
37097;SDS011;63608;49.572;12.348;2024-01-30T00:30:20;1.97;;;1.87;;
37097;SDS011;63608;49.572;12.348;2024-01-30T00:32:23;2.03;;;2.03;;
37097;SDS011;63608;49.572;12.348;2024-01-30T00:34:25;2.07;;;2.07;;
37097;SDS011;63608;49.572;12.348;2024-01-30T00:36:27;2.30;;;2.20;;
37097;SDS011;63608;49.572;12.348;2024-01-30T00:38:30;2.40;;;2.30;;
37097;SDS011;63608;49.572;12.348;2024-01-30T00:40:32;2.70;;;2.60;;
37097;SDS011;63608;49.572;12.348;2024-01-30T00:42:34;2.20;;;2.10;;
37097;SDS011;63608;49.572;12.348;2024-01-30T00:44:35;2.70;;;2.60;;
37097;SDS011;63608;49.572;12.348;2024-01-30T00:46:38;2.70;;;2.60;;
37097;SDS011;63608;49.572;12.348;2024-01-30T00:48:42;2.70;;;2.60;;
37097;SDS011;63608;49.572;12.348;2024-01-30T00:50:44;2.77;;;2.67;;
37097;SDS011;63608;49.572;12.348;2024-01-30T00:52:46;2.40;;;2.30;;
37097;SDS011;63608;49.572;12.348;2024-01-30T00:54:48;2.97;;;2.87;;
37097;SDS011;63608;49.572;12.348;2024-01-30T00:56:50;2.80;;;2.63;;
37097;SDS011;63608;49.572;12.348;2024-01-30T00:58:52;2.20;;;2.10;;
37097;SDS011;63608;49.572;12.348;2024-01-30T01:00:53;2.47;;;2.30;;
37097;SDS011;63608;49.572;12.348;2024-01-30T01:02:55;1.90;;;1.90;;
37097;SDS011;63608;49.572;12.348;2024-01-30T01:04:58;2.10;;;2.00;;
37097;SDS011;63608;49.572;12.348;2024-01-30T01:07:00;2.90;;;2.80;;
37097;SDS011;63608;49.572;12.348;2024-01-30T01:09:02;2.77;;;2.67;;
37097;SDS011;63608;49.572;12.348;2024-01-30T01:11:05;2.60;;;2.50;;
37097;SDS011;63608;49.572;12.348;2024-01-30T01:13:07;3.23;;;2.97;;
37097;SDS011;63608;49.572;12.348;2024-01-30T01:15:09;2.50;;;2.40;;
37097;SDS011;63608;49.572;12.348;2024-01-30T01:17:11;3.03;;;2.80;;
37097;SDS011;63608;49.572;12.348;2024-01-30T01:19:14;3.67;;;3.20;;
37097;SDS011;63608;49.572;12.348;2024-01-30T01:21:17;3.00;;;2.90;;
37097;SDS011;63608;49.572;12.348;2024-01-30T01:23:19;3.23;;;2.70;;
37097;SDS011;63608;49.572;12.348;2024-01-30T01:25:21;2.47;;;2.37;;
37097;SDS011;63608;49.572;12.348;2024-01-30T01:27:23;5.43;;;2.70;;
37097;SDS011;63608;49.572;12.348;2024-01-30T01:29:25;2.53;;;2.47;;
37097;SDS011;63608;49.572;12.348;2024-01-30T01:31:29;2.40;;;2.30;;
37097;SDS011;63608;49.572;12.348;2024-01-30T01:33:31;2.47;;;2.37;;
37097;SDS011;63608;49.572;12.348;2024-01-30T01:35:33;2.17;;;2.07;;
37097;SDS011;63608;49.572;12.348;2024-01-30T01:37:37;2.30;;;2.20;;
37097;SDS011;63608;49.572;12.348;2024-01-30T01:39:39;2.50;;;2.30;;
37097;SDS011;63608;49.572;12.348;2024-01-30T01:41:41;2.30;;;2.20;;
37097;SDS011;63608;49.572;12.348;2024-01-30T01:43:43;2.77;;;2.67;;
37097;SDS011;63608;49.572;12.348;2024-01-30T01:45:46;2.13;;;2.13;;
37097;SDS011;63608;49.572;12.348;2024-01-30T01:47:48;2.77;;;2.57;;
37097;SDS011;63608;49.572;12.348;2024-01-30T01:49:52;2.53;;;2.43;;
37097;SDS011;63608;49.572;12.348;2024-01-30T01:51:55;3.17;;;2.87;;
37097;SDS011;63608;49.572;12.348;2024-01-30T01:53:59;2.83;;;2.73;;
37097;SDS011;63608;49.572;12.348;2024-01-30T01:56:05;2.90;;;2.70;;
37097;SDS011;63608;49.572;12.348;2024-01-30T01:58:07;4.63;;;3.03;;
37097;SDS011;63608;49.572;12.348;2024-01-30T02:00:11;2.50;;;2.40;;
37097;SDS011;63608;49.572;12.348;2024-01-30T02:02:13;2.50;;;2.40;;
37097;SDS011;63608;49.572;12.348;2024-01-30T02:04:17;3.63;;;3.03;;
37097;SDS011;63608;49.572;12.348;2024-01-30T02:06:19;3.10;;;3.00;;
37097;SDS011;63608;49.572;12.348;2024-01-30T02:08:22;3.10;;;2.90;;
37097;SDS011;63608;49.572;12.348;2024-01-30T02:10:25;2.90;;;2.80;;
37097;SDS011;63608;49.572;12.348;2024-01-30T02:12:27;3.03;;;2.83;;
37097;SDS011;63608;49.572;12.348;2024-01-30T02:14:29;2.80;;;2.70;;
37097;SDS011;63608;49.572;12.348;2024-01-30T02:16:31;3.23;;;3.03;;
37097;SDS011;63608;49.572;12.348;2024-01-30T02:18:34;1.90;;;1.90;;
37097;SDS011;63608;49.572;12.348;2024-01-30T02:20:37;2.63;;;2.53;;
37097;SDS011;63608;49.572;12.348;2024-01-30T02:22:40;2.30;;;2.20;;
37097;SDS011;63608;49.572;12.348;2024-01-30T02:24:42;2.83;;;2.60;;
37097;SDS011;63608;49.572;12.348;2024-01-30T02:26:44;2.37;;;2.37;;
37097;SDS011;63608;49.572;12.348;2024-01-30T02:28:46;2.83;;;2.63;;
37097;SDS011;63608;49.572;12.348;2024-01-30T02:30:48;3.20;;;2.93;;
37097;SDS011;63608;49.572;12.348;2024-01-30T02:32:50;2.33;;;2.23;;
37097;SDS011;63608;49.572;12.348;2024-01-30T02:34:52;2.60;;;2.40;;
37097;SDS011;63608;49.572;12.348;2024-01-30T02:36:54;2.37;;;2.33;;
37097;SDS011;63608;49.572;12.348;2024-01-30T02:38:57;2.20;;;2.20;;
37097;SDS011;63608;49.572;12.348;2024-01-30T02:40:59;2.60;;;2.50;;
37097;SDS011;63608;49.572;12.348;2024-01-30T02:43:02;2.53;;;2.33;;
37097;SDS011;63608;49.572;12.348;2024-01-30T02:45:05;3.03;;;2.87;;
37097;SDS011;63608;49.572;12.348;2024-01-30T02:47:07;2.70;;;2.50;;
37097;SDS011;63608;49.572;12.348;2024-01-30T02:49:09;3.13;;;2.90;;
37097;SDS011;63608;49.572;12.348;2024-01-30T02:51:11;2.97;;;2.77;;
37097;SDS011;63608;49.572;12.348;2024-01-30T02:53:13;3.20;;;3.10;;
37097;SDS011;63608;49.572;12.348;2024-01-30T02:55:17;2.70;;;2.50;;
37097;SDS011;63608;49.572;12.348;2024-01-30T02:57:18;2.63;;;2.53;;
37097;SDS011;63608;49.572;12.348;2024-01-30T02:59:20;3.03;;;2.73;;
37097;SDS011;63608;49.572;12.348;2024-01-30T03:01:22;3.30;;;3.10;;
37097;SDS011;63608;49.572;12.348;2024-01-30T03:03:25;3.07;;;2.80;;
37097;SDS011;63608;49.572;12.348;2024-01-30T03:05:27;2.70;;;2.60;;
37097;SDS011;63608;49.572;12.348;2024-01-30T03:07:29;3.10;;;2.83;;
37097;SDS011;63608;49.572;12.348;2024-01-30T03:09:31;2.80;;;2.70;;
37097;SDS011;63608;49.572;12.348;2024-01-30T03:11:34;2.93;;;2.83;;
37097;SDS011;63608;49.572;12.348;2024-01-30T03:13:37;2.90;;;2.77;;
37097;SDS011;63608;49.572;12.348;2024-01-30T03:15:39;3.40;;;3.10;;
37097;SDS011;63608;49.572;12.348;2024-01-30T03:17:41;3.07;;;2.87;;
37097;SDS011;63608;49.572;12.348;2024-01-30T03:19:43;3.00;;;2.90;;
37097;SDS011;63608;49.572;12.348;2024-01-30T03:21:45;5.00;;;2.90;;
37097;SDS011;63608;49.572;12.348;2024-01-30T03:23:47;3.00;;;2.80;;
37097;SDS011;63608;49.572;12.348;2024-01-30T03:25:48;2.63;;;2.53;;
37097;SDS011;63608;49.572;12.348;2024-01-30T03:27:51;2.80;;;2.60;;
37097;SDS011;63608;49.572;12.348;2024-01-30T03:29:54;2.87;;;2.67;;
37097;SDS011;63608;49.572;12.348;2024-01-30T03:31:56;2.30;;;2.20;;
37097;SDS011;63608;49.572;12.348;2024-01-30T03:33:58;2.10;;;2.00;;
37097;SDS011;63608;49.572;12.348;2024-01-30T03:36:02;2.03;;;2.03;;
37097;SDS011;63608;49.572;12.348;2024-01-30T03:38:06;2.30;;;2.20;;
37097;SDS011;63608;49.572;12.348;2024-01-30T03:40:08;1.97;;;1.87;;
37097;SDS011;63608;49.572;12.348;2024-01-30T03:42:11;2.30;;;2.20;;
37097;SDS011;63608;49.572;12.348;2024-01-30T03:44:14;2.30;;;2.30;;
37097;SDS011;63608;49.572;12.348;2024-01-30T03:46:16;2.30;;;2.13;;
37097;SDS011;63608;49.572;12.348;2024-01-30T03:48:18;2.90;;;2.70;;
37097;SDS011;63608;49.572;12.348;2024-01-30T03:50:21;18.77;;;3.80;;
37097;SDS011;63608;49.572;12.348;2024-01-30T03:52:23;2.30;;;2.30;;
37097;SDS011;63608;49.572;12.348;2024-01-30T03:54:24;2.20;;;2.10;;
37097;SDS011;63608;49.572;12.348;2024-01-30T03:56:26;2.70;;;2.60;;
37097;SDS011;63608;49.572;12.348;2024-01-30T03:58:28;3.37;;;2.70;;
37097;SDS011;63608;49.572;12.348;2024-01-30T04:00:32;2.50;;;2.40;;
37097;SDS011;63608;49.572;12.348;2024-01-30T04:02:34;2.40;;;2.30;;
37097;SDS011;63608;49.572;12.348;2024-01-30T04:04:36;1.90;;;1.90;;
37097;SDS011;63608;49.572;12.348;2024-01-30T04:06:38;1.80;;;1.77;;
37097;SDS011;63608;49.572;12.348;2024-01-30T04:08:40;2.57;;;2.43;;
37097;SDS011;63608;49.572;12.348;2024-01-30T04:10:42;2.67;;;2.47;;
37097;SDS011;63608;49.572;12.348;2024-01-30T04:12:44;2.50;;;2.40;;
37097;SDS011;63608;49.572;12.348;2024-01-30T04:14:46;2.47;;;2.40;;
37097;SDS011;63608;49.572;12.348;2024-01-30T04:16:50;2.60;;;2.50;;
37097;SDS011;63608;49.572;12.348;2024-01-30T04:18:52;2.50;;;2.40;;
37097;SDS011;63608;49.572;12.348;2024-01-30T04:20:54;2.70;;;2.50;;
37097;SDS011;63608;49.572;12.348;2024-01-30T04:22:56;2.60;;;2.50;;
37097;SDS011;63608;49.572;12.348;2024-01-30T04:24:57;2.60;;;2.50;;
37097;SDS011;63608;49.572;12.348;2024-01-30T04:26:59;2.87;;;2.77;;
37097;SDS011;63608;49.572;12.348;2024-01-30T04:29:01;2.30;;;2.17;;
37097;SDS011;63608;49.572;12.348;2024-01-30T04:31:04;2.53;;;2.43;;
37097;SDS011;63608;49.572;12.348;2024-01-30T04:33:06;2.90;;;2.70;;
37097;SDS011;63608;49.572;12.348;2024-01-30T04:35:08;3.33;;;2.60;;
37097;SDS011;63608;49.572;12.348;2024-01-30T04:37:10;2.50;;;2.40;;
37097;SDS011;63608;49.572;12.348;2024-01-30T04:39:12;2.50;;;2.40;;
37097;SDS011;63608;49.572;12.348;2024-01-30T04:41:14;2.70;;;2.60;;
37097;SDS011;63608;49.572;12.348;2024-01-30T04:43:16;3.10;;;2.90;;
37097;SDS011;63608;49.572;12.348;2024-01-30T04:45:19;2.40;;;2.30;;
37097;SDS011;63608;49.572;12.348;2024-01-30T04:47:21;2.90;;;2.80;;
37097;SDS011;63608;49.572;12.348;2024-01-30T04:49:24;2.90;;;2.60;;
37097;SDS011;63608;49.572;12.348;2024-01-30T04:51:25;3.20;;;3.00;;
37097;SDS011;63608;49.572;12.348;2024-01-30T04:53:27;2.90;;;2.80;;
37097;SDS011;63608;49.572;12.348;2024-01-30T04:55:31;4.00;;;3.63;;
37097;SDS011;63608;49.572;12.348;2024-01-30T04:57:33;2.70;;;2.60;;
37097;SDS011;63608;49.572;12.348;2024-01-30T04:59:34;2.60;;;2.50;;
37097;SDS011;63608;49.572;12.348;2024-01-30T05:01:36;3.37;;;3.17;;
37097;SDS011;63608;49.572;12.348;2024-01-30T05:03:38;3.00;;;2.80;;
37097;SDS011;63608;49.572;12.348;2024-01-30T05:05:41;3.07;;;2.87;;
37097;SDS011;63608;49.572;12.348;2024-01-30T05:07:43;2.40;;;2.40;;
37097;SDS011;63608;49.572;12.348;2024-01-30T05:09:44;2.80;;;2.70;;
37097;SDS011;63608;49.572;12.348;2024-01-30T05:11:47;2.63;;;2.47;;
37097;SDS011;63608;49.572;12.348;2024-01-30T05:13:49;2.83;;;2.70;;
37097;SDS011;63608;49.572;12.348;2024-01-30T05:15:51;2.50;;;2.40;;
37097;SDS011;63608;49.572;12.348;2024-01-30T05:17:53;2.33;;;2.10;;
37097;SDS011;63608;49.572;12.348;2024-01-30T05:19:55;2.67;;;2.57;;
37097;SDS011;63608;49.572;12.348;2024-01-30T05:21:58;2.37;;;2.27;;
37097;SDS011;63608;49.572;12.348;2024-01-30T05:24:00;2.93;;;2.70;;
37097;SDS011;63608;49.572;12.348;2024-01-30T05:26:02;2.10;;;2.00;;
37097;SDS011;63608;49.572;12.348;2024-01-30T05:28:05;4.30;;;3.03;;
37097;SDS011;63608;49.572;12.348;2024-01-30T05:30:07;3.13;;;2.80;;
37097;SDS011;63608;49.572;12.348;2024-01-30T05:32:10;2.50;;;2.40;;
37097;SDS011;63608;49.572;12.348;2024-01-30T05:34:12;2.43;;;2.33;;
37097;SDS011;63608;49.572;12.348;2024-01-30T05:36:13;2.67;;;2.57;;
37097;SDS011;63608;49.572;12.348;2024-01-30T05:38:16;3.53;;;3.00;;
37097;SDS011;63608;49.572;12.348;2024-01-30T05:40:18;2.77;;;2.67;;
37097;SDS011;63608;49.572;12.348;2024-01-30T05:42:20;2.70;;;2.60;;
37097;SDS011;63608;49.572;12.348;2024-01-30T05:44:22;2.80;;;2.70;;
37097;SDS011;63608;49.572;12.348;2024-01-30T05:46:24;2.90;;;2.77;;
37097;SDS011;63608;49.572;12.348;2024-01-30T05:48:26;3.30;;;2.83;;
37097;SDS011;63608;49.572;12.348;2024-01-30T05:50:28;2.90;;;2.80;;
37097;SDS011;63608;49.572;12.348;2024-01-30T05:52:30;2.87;;;2.67;;
37097;SDS011;63608;49.572;12.348;2024-01-30T05:54:34;2.80;;;2.70;;
37097;SDS011;63608;49.572;12.348;2024-01-30T05:56:36;2.77;;;2.57;;
37097;SDS011;63608;49.572;12.348;2024-01-30T05:58:38;2.83;;;2.67;;
37097;SDS011;63608;49.572;12.348;2024-01-30T06:00:39;2.90;;;2.70;;
37097;SDS011;63608;49.572;12.348;2024-01-30T06:02:41;3.20;;;3.10;;
37097;SDS011;63608;49.572;12.348;2024-01-30T06:04:42;3.53;;;3.23;;
37097;SDS011;63608;49.572;12.348;2024-01-30T06:06:45;3.10;;;2.90;;
37097;SDS011;63608;49.572;12.348;2024-01-30T06:08:47;2.57;;;2.47;;
37097;SDS011;63608;49.572;12.348;2024-01-30T06:10:50;3.60;;;3.40;;
37097;SDS011;63608;49.572;12.348;2024-01-30T06:12:51;3.17;;;2.97;;
37097;SDS011;63608;49.572;12.348;2024-01-30T06:14:53;2.63;;;2.53;;
37097;SDS011;63608;49.572;12.348;2024-01-30T06:16:57;3.77;;;3.03;;
37097;SDS011;63608;49.572;12.348;2024-01-30T06:18:59;3.13;;;3.03;;
37097;SDS011;63608;49.572;12.348;2024-01-30T06:21:01;4.20;;;3.23;;
37097;SDS011;63608;49.572;12.348;2024-01-30T06:23:03;3.37;;;3.20;;
37097;SDS011;63608;49.572;12.348;2024-01-30T06:25:05;3.13;;;2.93;;
37097;SDS011;63608;49.572;12.348;2024-01-30T06:27:09;3.37;;;3.07;;
37097;SDS011;63608;49.572;12.348;2024-01-30T06:29:12;3.20;;;3.07;;
37097;SDS011;63608;49.572;12.348;2024-01-30T06:31:15;2.97;;;2.87;;
37097;SDS011;63608;49.572;12.348;2024-01-30T06:33:17;3.53;;;3.27;;
37097;SDS011;63608;49.572;12.348;2024-01-30T06:35:18;3.30;;;3.20;;
37097;SDS011;63608;49.572;12.348;2024-01-30T06:37:21;3.20;;;3.00;;
37097;SDS011;63608;49.572;12.348;2024-01-30T06:39:22;3.60;;;3.30;;
37097;SDS011;63608;49.572;12.348;2024-01-30T06:41:25;3.63;;;3.40;;
37097;SDS011;63608;49.572;12.348;2024-01-30T06:43:28;3.60;;;3.37;;
37097;SDS011;63608;49.572;12.348;2024-01-30T06:45:31;3.07;;;2.97;;
37097;SDS011;63608;49.572;12.348;2024-01-30T06:47:33;2.90;;;2.77;;
37097;SDS011;63608;49.572;12.348;2024-01-30T06:49:35;3.83;;;3.60;;
37097;SDS011;63608;49.572;12.348;2024-01-30T06:51:38;3.23;;;3.03;;
37097;SDS011;63608;49.572;12.348;2024-01-30T06:53:40;3.67;;;3.40;;
37097;SDS011;63608;49.572;12.348;2024-01-30T06:55:42;3.60;;;3.33;;
37097;SDS011;63608;49.572;12.348;2024-01-30T06:57:44;3.03;;;2.83;;
37097;SDS011;63608;49.572;12.348;2024-01-30T06:59:48;3.70;;;3.50;;
37097;SDS011;63608;49.572;12.348;2024-01-30T07:01:50;3.47;;;3.27;;
37097;SDS011;63608;49.572;12.348;2024-01-30T07:03:51;3.13;;;2.93;;
37097;SDS011;63608;49.572;12.348;2024-01-30T07:05:53;3.27;;;3.07;;
37097;SDS011;63608;49.572;12.348;2024-01-30T07:07:55;3.07;;;2.83;;
37097;SDS011;63608;49.572;12.348;2024-01-30T07:09:58;3.47;;;3.17;;
37097;SDS011;63608;49.572;12.348;2024-01-30T07:12:00;2.93;;;2.83;;
37097;SDS011;63608;49.572;12.348;2024-01-30T07:14:01;3.17;;;3.07;;
37097;SDS011;63608;49.572;12.348;2024-01-30T07:16:06;4.33;;;3.27;;
37097;SDS011;63608;49.572;12.348;2024-01-30T07:18:08;3.40;;;3.13;;
37097;SDS011;63608;49.572;12.348;2024-01-30T07:20:11;3.27;;;3.17;;
37097;SDS011;63608;49.572;12.348;2024-01-30T07:22:13;3.07;;;2.97;;
37097;SDS011;63608;49.572;12.348;2024-01-30T07:24:15;3.07;;;2.87;;
37097;SDS011;63608;49.572;12.348;2024-01-30T07:26:17;3.40;;;3.17;;
37097;SDS011;63608;49.572;12.348;2024-01-30T07:28:19;2.80;;;2.70;;
37097;SDS011;63608;49.572;12.348;2024-01-30T07:30:21;3.20;;;3.07;;
37097;SDS011;63608;49.572;12.348;2024-01-30T07:32:26;2.60;;;2.50;;
37097;SDS011;63608;49.572;12.348;2024-01-30T07:34:28;4.30;;;3.13;;
37097;SDS011;63608;49.572;12.348;2024-01-30T07:36:30;3.20;;;2.93;;
37097;SDS011;63608;49.572;12.348;2024-01-30T07:38:32;3.37;;;3.10;;
37097;SDS011;63608;49.572;12.348;2024-01-30T07:40:34;3.17;;;2.93;;
37097;SDS011;63608;49.572;12.348;2024-01-30T07:42:36;2.80;;;2.70;;
37097;SDS011;63608;49.572;12.348;2024-01-30T07:44:38;3.10;;;2.90;;
37097;SDS011;63608;49.572;12.348;2024-01-30T07:46:39;2.77;;;2.67;;
37097;SDS011;63608;49.572;12.348;2024-01-30T07:48:43;2.60;;;2.50;;
37097;SDS011;63608;49.572;12.348;2024-01-30T07:50:45;3.10;;;3.00;;
37097;SDS011;63608;49.572;12.348;2024-01-30T07:52:47;3.33;;;2.87;;
37097;SDS011;63608;49.572;12.348;2024-01-30T07:54:54;3.33;;;3.23;;
37097;SDS011;63608;49.572;12.348;2024-01-30T07:56:56;3.30;;;3.10;;
37097;SDS011;63608;49.572;12.348;2024-01-30T07:58:57;3.40;;;3.10;;
37097;SDS011;63608;49.572;12.348;2024-01-30T08:01:00;3.23;;;3.13;;
37097;SDS011;63608;49.572;12.348;2024-01-30T08:03:03;3.90;;;3.60;;
37097;SDS011;63608;49.572;12.348;2024-01-30T08:05:07;3.33;;;3.13;;
37097;SDS011;63608;49.572;12.348;2024-01-30T08:07:11;4.50;;;4.20;;
37097;SDS011;63608;49.572;12.348;2024-01-30T08:09:12;4.27;;;3.87;;
37097;SDS011;63608;49.572;12.348;2024-01-30T08:11:14;3.93;;;3.73;;
37097;SDS011;63608;49.572;12.348;2024-01-30T08:13:16;4.23;;;4.00;;
37097;SDS011;63608;49.572;12.348;2024-01-30T08:15:18;4.30;;;4.00;;
37097;SDS011;63608;49.572;12.348;2024-01-30T08:17:20;4.83;;;4.53;;
37097;SDS011;63608;49.572;12.348;2024-01-30T08:19:22;3.63;;;3.43;;
37097;SDS011;63608;49.572;12.348;2024-01-30T08:21:25;3.93;;;3.67;;
37097;SDS011;63608;49.572;12.348;2024-01-30T08:23:27;3.70;;;3.50;;
37097;SDS011;63608;49.572;12.348;2024-01-30T08:25:29;3.87;;;3.70;;
37097;SDS011;63608;49.572;12.348;2024-01-30T08:27:31;3.43;;;3.33;;
37097;SDS011;63608;49.572;12.348;2024-01-30T08:29:35;4.40;;;4.10;;
37097;SDS011;63608;49.572;12.348;2024-01-30T08:31:37;3.57;;;3.37;;
37097;SDS011;63608;49.572;12.348;2024-01-30T08:33:39;3.70;;;3.50;;
37097;SDS011;63608;49.572;12.348;2024-01-30T08:35:41;3.27;;;3.17;;
37097;SDS011;63608;49.572;12.348;2024-01-30T08:37:45;3.60;;;3.43;;
37097;SDS011;63608;49.572;12.348;2024-01-30T08:39:47;4.40;;;4.10;;
37097;SDS011;63608;49.572;12.348;2024-01-30T08:41:49;3.23;;;3.10;;
37097;SDS011;63608;49.572;12.348;2024-01-30T08:43:51;3.80;;;3.57;;
37097;SDS011;63608;49.572;12.348;2024-01-30T08:45:54;3.40;;;3.20;;
37097;SDS011;63608;49.572;12.348;2024-01-30T08:47:57;3.43;;;3.23;;
37097;SDS011;63608;49.572;12.348;2024-01-30T08:49:58;3.20;;;3.00;;
37097;SDS011;63608;49.572;12.348;2024-01-30T08:52:00;3.33;;;3.23;;
37097;SDS011;63608;49.572;12.348;2024-01-30T08:54:05;3.83;;;3.60;;
37097;SDS011;63608;49.572;12.348;2024-01-30T08:56:07;3.60;;;3.40;;
37097;SDS011;63608;49.572;12.348;2024-01-30T08:58:09;3.60;;;3.40;;
37097;SDS011;63608;49.572;12.348;2024-01-30T09:00:11;3.50;;;3.40;;
37097;SDS011;63608;49.572;12.348;2024-01-30T09:02:14;3.90;;;3.60;;
37097;SDS011;63608;49.572;12.348;2024-01-30T09:04:18;3.87;;;3.67;;
37097;SDS011;63608;49.572;12.348;2024-01-30T09:06:20;4.23;;;3.93;;
37097;SDS011;63608;49.572;12.348;2024-01-30T09:08:22;3.40;;;3.20;;
37097;SDS011;63608;49.572;12.348;2024-01-30T09:10:25;3.83;;;3.63;;
37097;SDS011;63608;49.572;12.348;2024-01-30T09:12:28;3.70;;;3.50;;
37097;SDS011;63608;49.572;12.348;2024-01-30T09:14:30;3.90;;;3.70;;
37097;SDS011;63608;49.572;12.348;2024-01-30T09:16:32;5.10;;;3.93;;
37097;SDS011;63608;49.572;12.348;2024-01-30T09:18:34;3.27;;;3.07;;
37097;SDS011;63608;49.572;12.348;2024-01-30T09:20:35;3.90;;;3.60;;
37097;SDS011;63608;49.572;12.348;2024-01-30T09:22:37;3.67;;;3.47;;
37097;SDS011;63608;49.572;12.348;2024-01-30T09:24:39;3.30;;;3.20;;
37097;SDS011;63608;49.572;12.348;2024-01-30T09:26:43;4.43;;;4.17;;
37097;SDS011;63608;49.572;12.348;2024-01-30T09:28:44;4.40;;;4.00;;
37097;SDS011;63608;49.572;12.348;2024-01-30T09:30:46;3.87;;;3.67;;
37097;SDS011;63608;49.572;12.348;2024-01-30T09:32:48;3.33;;;3.23;;
37097;SDS011;63608;49.572;12.348;2024-01-30T09:34:50;3.90;;;3.70;;
37097;SDS011;63608;49.572;12.348;2024-01-30T09:36:52;3.40;;;3.30;;
37097;SDS011;63608;49.572;12.348;2024-01-30T09:38:54;3.77;;;3.57;;
37097;SDS011;63608;49.572;12.348;2024-01-30T09:40:57;4.27;;;3.80;;
37097;SDS011;63608;49.572;12.348;2024-01-30T09:43:05;3.77;;;3.57;;
37097;SDS011;63608;49.572;12.348;2024-01-30T09:45:08;3.73;;;3.53;;
37097;SDS011;63608;49.572;12.348;2024-01-30T09:47:11;4.93;;;4.43;;
37097;SDS011;63608;49.572;12.348;2024-01-30T09:49:13;3.70;;;3.50;;
37097;SDS011;63608;49.572;12.348;2024-01-30T09:51:15;4.00;;;3.80;;
37097;SDS011;63608;49.572;12.348;2024-01-30T09:53:18;3.60;;;3.40;;
37097;SDS011;63608;49.572;12.348;2024-01-30T09:55:20;4.03;;;3.80;;
37097;SDS011;63608;49.572;12.348;2024-01-30T09:57:23;3.70;;;3.50;;
37097;SDS011;63608;49.572;12.348;2024-01-30T09:59:27;3.40;;;3.30;;
37097;SDS011;63608;49.572;12.348;2024-01-30T10:01:29;3.30;;;3.20;;
37097;SDS011;63608;49.572;12.348;2024-01-30T10:03:32;3.87;;;3.70;;
37097;SDS011;63608;49.572;12.348;2024-01-30T10:05:35;3.33;;;3.13;;
37097;SDS011;63608;49.572;12.348;2024-01-30T10:07:37;4.50;;;3.80;;
37097;SDS011;63608;49.572;12.348;2024-01-30T10:09:39;3.10;;;3.00;;
37097;SDS011;63608;49.572;12.348;2024-01-30T10:11:41;3.70;;;3.53;;
37097;SDS011;63608;49.572;12.348;2024-01-30T10:13:43;3.60;;;3.40;;
37097;SDS011;63608;49.572;12.348;2024-01-30T10:15:47;3.17;;;3.07;;
37097;SDS011;63608;49.572;12.348;2024-01-30T10:17:49;3.30;;;3.20;;
37097;SDS011;63608;49.572;12.348;2024-01-30T10:19:51;3.77;;;3.57;;
37097;SDS011;63608;49.572;12.348;2024-01-30T10:21:53;3.43;;;3.33;;
37097;SDS011;63608;49.572;12.348;2024-01-30T10:23:55;3.47;;;3.37;;
37097;SDS011;63608;49.572;12.348;2024-01-30T10:25:57;3.73;;;3.53;;
37097;SDS011;63608;49.572;12.348;2024-01-30T10:28:00;2.97;;;2.87;;
37097;SDS011;63608;49.572;12.348;2024-01-30T10:30:02;4.00;;;3.70;;
37097;SDS011;63608;49.572;12.348;2024-01-30T10:32:06;3.40;;;3.30;;
37097;SDS011;63608;49.572;12.348;2024-01-30T10:34:09;3.97;;;3.67;;
37097;SDS011;63608;49.572;12.348;2024-01-30T10:36:11;3.43;;;3.33;;
37097;SDS011;63608;49.572;12.348;2024-01-30T10:38:15;3.23;;;3.13;;
37097;SDS011;63608;49.572;12.348;2024-01-30T10:40:18;3.47;;;3.30;;
37097;SDS011;63608;49.572;12.348;2024-01-30T10:42:24;3.07;;;2.97;;
37097;SDS011;63608;49.572;12.348;2024-01-30T10:44:29;3.83;;;3.33;;
37097;SDS011;63608;49.572;12.348;2024-01-30T10:46:31;2.90;;;2.80;;
37097;SDS011;63608;49.572;12.348;2024-01-30T10:48:36;3.47;;;3.27;;
37097;SDS011;63608;49.572;12.348;2024-01-30T10:50:44;3.33;;;3.10;;
37097;SDS011;63608;49.572;12.348;2024-01-30T10:52:46;3.23;;;3.10;;
37097;SDS011;63608;49.572;12.348;2024-01-30T10:54:49;2.70;;;2.60;;
37097;SDS011;63608;49.572;12.348;2024-01-30T10:56:50;3.47;;;3.27;;
37097;SDS011;63608;49.572;12.348;2024-01-30T10:58:53;4.70;;;3.50;;
37097;SDS011;63608;49.572;12.348;2024-01-30T11:00:55;3.00;;;2.90;;
37097;SDS011;63608;49.572;12.348;2024-01-30T11:02:58;3.10;;;3.00;;
37097;SDS011;63608;49.572;12.348;2024-01-30T11:05:01;3.00;;;2.87;;
37097;SDS011;63608;49.572;12.348;2024-01-30T11:07:13;3.17;;;2.97;;
37097;SDS011;63608;49.572;12.348;2024-01-30T11:09:17;3.40;;;3.30;;
37097;SDS011;63608;49.572;12.348;2024-01-30T11:11:19;3.30;;;3.20;;
37097;SDS011;63608;49.572;12.348;2024-01-30T11:13:22;3.33;;;3.13;;
37097;SDS011;63608;49.572;12.348;2024-01-30T11:15:28;2.97;;;2.87;;
37097;SDS011;63608;49.572;12.348;2024-01-30T11:19:54;2.60;;;2.50;;
37097;SDS011;63608;49.572;12.348;2024-01-30T11:21:57;2.40;;;2.40;;
37097;SDS011;63608;49.572;12.348;2024-01-30T11:24:00;2.20;;;2.20;;
37097;SDS011;63608;49.572;12.348;2024-01-30T11:26:04;2.63;;;2.43;;
37097;SDS011;63608;49.572;12.348;2024-01-30T11:28:06;2.37;;;2.27;;
37097;SDS011;63608;49.572;12.348;2024-01-30T11:30:22;1.90;;;1.90;;
37097;SDS011;63608;49.572;12.348;2024-01-30T11:32:26;2.37;;;2.27;;
37097;SDS011;63608;49.572;12.348;2024-01-30T11:34:28;2.10;;;2.00;;
37097;SDS011;63608;49.572;12.348;2024-01-30T11:36:30;1.80;;;1.80;;
37097;SDS011;63608;49.572;12.348;2024-01-30T11:38:36;2.97;;;2.87;;
37097;SDS011;63608;49.572;12.348;2024-01-30T11:40:38;1.97;;;1.93;;
37097;SDS011;63608;49.572;12.348;2024-01-30T11:42:41;1.90;;;1.90;;
37097;SDS011;63608;49.572;12.348;2024-01-30T11:44:46;2.30;;;2.20;;
37097;SDS011;63608;49.572;12.348;2024-01-30T11:46:48;1.97;;;1.87;;
37097;SDS011;63608;49.572;12.348;2024-01-30T11:48:51;2.03;;;2.00;;
37097;SDS011;63608;49.572;12.348;2024-01-30T11:50:53;2.60;;;2.40;;
37097;SDS011;63608;49.572;12.348;2024-01-30T11:52:56;2.20;;;2.10;;
37097;SDS011;63608;49.572;12.348;2024-01-30T11:54:58;2.07;;;1.97;;
37097;SDS011;63608;49.572;12.348;2024-01-30T11:57:01;2.00;;;2.00;;
37097;SDS011;63608;49.572;12.348;2024-01-30T11:59:04;1.63;;;1.63;;
37097;SDS011;63608;49.572;12.348;2024-01-30T12:01:06;1.83;;;1.83;;
37097;SDS011;63608;49.572;12.348;2024-01-30T12:03:08;2.43;;;2.33;;
37097;SDS011;63608;49.572;12.348;2024-01-30T12:05:13;1.83;;;1.83;;
37097;SDS011;63608;49.572;12.348;2024-01-30T12:07:15;2.07;;;1.97;;
37097;SDS011;63608;49.572;12.348;2024-01-30T12:09:17;1.80;;;1.80;;